Time;durP1;ratioP1;P1;durP2;ratioP2;P2;SDS_P1;SDS_P2;PMS_P1;PMS_P2;Temp;Humidity;BMP_temperature;BMP_pressure;BME280_temperature;BME280_humidity;BME280_pressure;Samples;Min_cycle;Max_cycle;Signal;HPM_P1;HPM_P2
2021/09/07 00:02:06;;;;;;;9.17;4.03;;;8.10;99.90;;;;;;4384922;28;655472;-66
2021/09/07 00:04:53;;;;;;;10.20;4.10;;;8.10;99.90;;;;;;4353247;28;656019;-66
2021/09/07 00:07:41;;;;;;;7.13;3.50;;;8.00;99.90;;;;;;4384737;28;656253;-66
2021/09/07 00:10:30;;;;;;;8.87;3.97;;;8.00;99.90;;;;;;4370096;28;655518;-65
2021/09/07 00:13:18;;;;;;;8.57;3.87;;;8.00;99.90;;;;;;4367126;28;656136;-66
2021/09/07 00:16:06;;;;;;;11.53;3.83;;;8.00;99.90;;;;;;4383351;28;655917;-66
2021/09/07 00:18:53;;;;;;;10.10;3.93;;;7.90;99.90;;;;;;4367309;28;656994;-66
2021/09/07 00:21:41;;;;;;;7.67;4.00;;;7.90;99.90;;;;;;4381271;28;656624;-65
2021/09/07 00:24:28;;;;;;;7.00;3.40;;;7.90;99.90;;;;;;4356567;28;655693;-66
2021/09/07 00:27:17;;;;;;;11.00;3.97;;;7.90;99.90;;;;;;4373837;28;655859;-66
2021/09/07 00:30:06;;;;;;;9.47;4.30;;;7.80;99.90;;;;;;4352162;28;657136;-66
2021/09/07 00:32:53;;;;;;;15.77;5.67;;;7.80;99.90;;;;;;4370679;28;655800;-66
2021/09/07 00:35:41;;;;;;;19.27;8.73;;;7.70;99.90;;;;;;4389302;28;656862;-65
2021/09/07 00:38:28;;;;;;;25.33;10.87;;;7.70;99.90;;;;;;4367502;28;657019;-66
2021/09/07 00:41:16;;;;;;;32.13;12.13;;;7.70;99.90;;;;;;4385639;28;657539;-66
2021/09/07 00:44:14;;;;;;;27.73;12.25;;;7.60;99.90;;;;;;4365332;28;657934;-66
2021/09/07 00:47:04;;;;;;;31.67;12.17;;;7.60;99.90;;;;;;4362597;28;658001;-66
2021/09/07 00:49:52;;;;;;;33.20;12.93;;;7.60;99.90;;;;;;4362519;28;657524;-66
2021/09/07 00:52:40;;;;;;;27.27;12.27;;;7.50;99.90;;;;;;4362453;28;660010;-66
2021/09/07 00:55:31;;;;;;;24.20;10.97;;;7.50;99.90;;;;;;4357928;28;657564;-66
2021/09/07 00:58:19;;;;;;;23.93;10.07;;;7.50;99.90;;;;;;4358437;28;657334;-66
2021/09/07 01:01:07;;;;;;;24.87;9.30;;;7.50;99.90;;;;;;4383109;28;657593;-66
2021/09/07 01:03:55;;;;;;;23.37;8.50;;;7.50;99.90;;;;;;4361821;28;656981;-66
2021/09/07 01:06:42;;;;;;;22.60;8.63;;;7.50;99.90;;;;;;4374263;28;656464;-66
2021/09/07 01:09:30;;;;;;;29.00;8.47;;;7.50;99.90;;;;;;4386061;28;657531;-66
2021/09/07 01:12:17;;;;;;;17.93;7.07;;;7.50;99.90;;;;;;4361209;28;656664;-66
2021/09/07 01:15:06;;;;;;;18.40;7.93;;;7.50;99.90;;;;;;4380891;28;656897;-66
2021/09/07 01:17:55;;;;;;;20.93;7.67;;;7.60;99.90;;;;;;4361795;28;656981;-66
2021/09/07 01:20:43;;;;;;;18.23;7.87;;;7.50;99.90;;;;;;4360972;28;656857;-66
2021/09/07 01:23:30;;;;;;;16.77;7.90;;;7.60;99.90;;;;;;4380552;28;656689;-66
2021/09/07 01:26:20;;;;;;;16.97;8.03;;;7.60;99.90;;;;;;4374343;28;656410;-66
2021/09/07 01:29:08;;;;;;;18.00;7.40;;;7.60;99.90;;;;;;4353636;28;656595;-66
2021/09/07 01:31:59;;;;;;;19.30;8.77;;;7.60;99.90;;;;;;4385910;28;657201;-66
2021/09/07 01:34:46;;;;;;;18.43;8.23;;;7.60;99.90;;;;;;4348946;28;656611;-66
2021/09/07 01:37:38;;;;;;;18.70;8.27;;;7.60;99.90;;;;;;4361359;28;657308;-66
2021/09/07 01:40:26;;;;;;;15.10;7.63;;;7.60;99.90;;;;;;4357811;28;656712;-66
2021/09/07 01:43:16;;;;;;;20.30;7.67;;;7.60;99.90;;;;;;4367346;28;656367;-66
2021/09/07 01:46:03;;;;;;;16.50;7.37;;;7.60;99.90;;;;;;4356119;28;656672;-66
2021/09/07 01:48:51;;;;;;;19.00;7.33;;;7.70;99.90;;;;;;4393990;28;656701;-66
2021/09/07 01:51:43;;;;;;;16.70;7.13;;;7.70;99.90;;;;;;4355121;28;656477;-66
2021/09/07 01:54:30;;;;;;;13.93;6.72;;;7.70;99.90;;;;;;4368979;28;657088;-66
2021/09/07 01:57:18;;;;;;;17.07;6.60;;;7.80;99.90;;;;;;4359314;28;656375;-66
2021/09/07 02:00:08;;;;;;;16.13;6.67;;;7.80;99.90;;;;;;4375829;28;656678;-66
2021/09/07 02:02:56;;;;;;;12.43;6.20;;;7.90;99.90;;;;;;4355685;28;657299;-66
2021/09/07 02:05:43;;;;;;;13.18;6.55;;;7.90;99.90;;;;;;4369644;28;656831;-66
2021/09/07 02:08:31;;;;;;;13.20;6.37;;;7.90;99.90;;;;;;4375402;28;657424;-66
2021/09/07 02:11:18;;;;;;;16.17;6.27;;;7.90;99.90;;;;;;4365944;28;657032;-66
2021/09/07 02:14:06;;;;;;;13.67;6.50;;;8.00;99.90;;;;;;4375717;28;656689;-66
2021/09/07 02:16:55;;;;;;;19.23;7.33;;;8.10;99.90;;;;;;4356778;28;656257;-66
2021/09/07 02:19:42;;;;;;;17.30;7.63;;;8.10;99.90;;;;;;4353164;28;656546;-66
2021/09/07 02:22:30;;;;;;;14.13;6.33;;;8.20;99.90;;;;;;4388867;28;656845;-66
2021/09/07 02:25:18;;;;;;;13.13;6.60;;;8.20;99.90;;;;;;4362620;28;656572;-66
2021/09/07 02:28:05;;;;;;;14.87;6.83;;;8.20;99.90;;;;;;4385599;28;658059;-66
2021/09/07 02:30:53;;;;;;;12.93;6.83;;;8.30;99.90;;;;;;4362656;28;656678;-66
2021/09/07 02:33:42;;;;;;;14.97;7.20;;;8.30;99.90;;;;;;4384153;28;657845;-66
2021/09/07 02:36:29;;;;;;;13.57;7.25;;;8.30;99.90;;;;;;4352043;28;657177;-66
2021/09/07 02:39:17;;;;;;;15.57;7.10;;;8.30;99.90;;;;;;4374435;28;656636;-66
2021/09/07 02:42:05;;;;;;;14.77;6.73;;;8.30;99.90;;;;;;4378140;28;657076;-66
2021/09/07 02:44:52;;;;;;;12.77;7.40;;;8.40;99.90;;;;;;4367958;28;656894;-66
2021/09/07 02:47:41;;;;;;;15.70;7.73;;;8.40;99.90;;;;;;4384761;28;657569;-66
2021/09/07 02:50:30;;;;;;;16.17;7.43;;;8.50;99.90;;;;;;4374756;28;656483;-66
2021/09/07 02:53:17;;;;;;;11.77;6.30;;;8.50;99.90;;;;;;4375295;28;656166;-66
2021/09/07 02:56:05;;;;;;;16.80;8.07;;;8.50;99.90;;;;;;4377709;28;657132;-66
2021/09/07 02:58:52;;;;;;;15.63;7.97;;;8.50;99.90;;;;;;4365338;28;656596;-66
2021/09/07 03:01:40;;;;;;;16.73;8.03;;;8.50;99.90;;;;;;4386845;28;657038;-66
2021/09/07 03:04:27;;;;;;;15.33;6.90;;;8.50;99.90;;;;;;4363241;28;656404;-66
2021/09/07 03:07:16;;;;;;;12.43;6.80;;;8.50;99.90;;;;;;4387476;28;657162;-66
2021/09/07 03:10:04;;;;;;;13.10;6.23;;;8.50;99.90;;;;;;4350152;28;658056;-66
2021/09/07 03:12:54;;;;;;;16.33;6.57;;;8.50;99.90;;;;;;4381169;28;656746;-66
2021/09/07 03:15:42;;;;;;;13.87;6.47;;;8.50;99.90;;;;;;4384023;28;656211;-66
2021/09/07 03:18:29;;;;;;;16.73;6.47;;;8.50;99.90;;;;;;4353862;28;656611;-66
2021/09/07 03:21:17;;;;;;;11.90;6.10;;;8.50;99.90;;;;;;4377997;28;656582;-66
2021/09/07 03:24:07;;;;;;;12.00;6.20;;;8.50;99.90;;;;;;4385188;28;657924;-66
2021/09/07 03:26:54;;;;;;;14.10;6.57;;;8.50;99.90;;;;;;4348070;28;657685;-66
2021/09/07 03:29:42;;;;;;;13.40;6.17;;;8.40;99.90;;;;;;4380580;28;656749;-66
2021/09/07 03:32:29;;;;;;;12.17;5.90;;;8.40;99.90;;;;;;4362128;28;657425;-66
2021/09/07 03:35:17;;;;;;;12.87;6.00;;;8.40;99.90;;;;;;4364665;28;656508;-66
2021/09/07 03:38:05;;;;;;;13.30;6.33;;;8.50;99.90;;;;;;4383309;28;657920;-66
2021/09/07 03:40:54;;;;;;;12.97;6.03;;;8.50;99.90;;;;;;4360045;28;656379;-66
2021/09/07 03:43:41;;;;;;;16.90;6.63;;;8.40;99.90;;;;;;4378633;28;656446;-66
2021/09/07 03:46:29;;;;;;;13.80;6.10;;;8.40;99.90;;;;;;4356618;28;657977;-66
2021/09/07 03:49:16;;;;;;;16.03;6.47;;;8.40;99.90;;;;;;4373995;28;656994;-66
2021/09/07 03:52:04;;;;;;;15.50;6.23;;;8.40;99.90;;;;;;4371924;28;657983;-66
2021/09/07 03:54:52;;;;;;;15.13;6.07;;;8.40;99.90;;;;;;4377191;28;656871;-66
2021/09/07 03:57:41;;;;;;;13.57;6.13;;;8.40;99.90;;;;;;4388899;28;657813;-65
2021/09/07 04:00:29;;;;;;;12.87;5.87;;;8.40;99.90;;;;;;4356303;28;657771;-66
2021/09/07 04:03:17;;;;;;;12.53;6.50;;;8.50;99.90;;;;;;4395259;28;656932;-66
2021/09/07 04:06:04;;;;;;;14.82;6.72;;;8.50;99.90;;;;;;4370698;28;657225;-65
2021/09/07 04:08:52;;;;;;;16.27;6.67;;;8.50;99.90;;;;;;4382768;28;656485;-65
2021/09/07 04:11:43;;;;;;;11.27;6.17;;;8.50;99.90;;;;;;4396107;28;657276;-66
2021/09/07 04:14:32;;;;;;;13.80;5.95;;;8.50;99.90;;;;;;4373023;28;657025;-65
2021/09/07 04:17:59;;;;;;;11.50;6.13;;;8.50;99.90;;;;;;4372027;28;656892;-66
2021/09/07 04:20:47;;;;;;;14.63;6.70;;;8.60;99.90;;;;;;4373612;28;656864;-66
2021/09/07 04:23:34;;;;;;;18.53;6.83;;;8.70;99.90;;;;;;4373368;28;656737;-66
2021/09/07 04:26:22;;;;;;;17.10;6.50;;;8.70;99.90;;;;;;4393994;28;656841;-66
2021/09/07 04:29:10;;;;;;;14.97;7.00;;;8.70;99.90;;;;;;4384762;28;657598;-66
2021/09/07 04:31:59;;;;;;;11.40;6.20;;;8.80;99.90;;;;;;4374602;28;656790;-66
2021/09/07 04:34:46;;;;;;;14.63;6.50;;;8.80;99.90;;;;;;4390277;28;656697;-66
2021/09/07 04:37:34;;;;;;;13.63;6.77;;;8.90;99.90;;;;;;4363903;28;658034;-65
2021/09/07 04:40:22;;;;;;;16.33;6.60;;;9.00;99.90;;;;;;4379836;28;656326;-66
2021/09/07 04:43:09;;;;;;;15.43;7.27;;;9.10;99.90;;;;;;4357591;28;657372;-66
2021/09/07 04:45:57;;;;;;;23.23;8.90;;;9.20;99.90;;;;;;4393601;28;656437;-66
2021/09/07 04:48:48;;;;;;;19.20;8.10;;;9.20;99.90;;;;;;4363570;28;657502;-66
2021/09/07 04:51:36;;;;;;;16.40;7.20;;;9.30;99.90;;;;;;4349296;28;657114;-66
2021/09/07 04:54:23;;;;;;;17.38;7.70;;;9.40;99.90;;;;;;4367346;28;656710;-66
2021/09/07 04:57:11;;;;;;;17.93;7.13;;;9.50;99.90;;;;;;4387073;28;656431;-66
2021/09/07 04:59:58;;;;;;;18.63;7.30;;;9.60;99.90;;;;;;4359088;28;656943;-66
2021/09/07 05:02:46;;;;;;;14.13;7.37;;;9.60;99.90;;;;;;4372738;28;656684;-66
2021/09/07 05:05:36;;;;;;;15.77;6.63;;;9.70;99.90;;;;;;4364161;28;658021;-66
2021/09/07 05:08:24;;;;;;;17.03;8.00;;;9.80;99.90;;;;;;4357898;28;656585;-66
2021/09/07 05:11:11;;;;;;;21.37;8.17;;;9.90;99.90;;;;;;4384303;28;655865;-66
2021/09/07 05:13:59;;;;;;;16.90;7.10;;;10.00;99.90;;;;;;4369002;28;656934;-66
2021/09/07 05:16:46;;;;;;;16.17;7.70;;;10.10;99.90;;;;;;4392964;28;657753;-66
2021/09/07 05:19:34;;;;;;;14.00;7.33;;;10.20;99.90;;;;;;4355111;28;659203;-66
2021/09/07 05:22:23;;;;;;;12.60;6.97;;;10.30;99.90;;;;;;4368732;28;658168;-66
2021/09/07 05:25:11;;;;;;;15.77;7.40;;;10.40;99.90;;;;;;4361203;28;658328;-66
2021/09/07 05:27:59;;;;;;;18.20;7.50;;;10.50;99.90;;;;;;4347747;28;658510;-66
2021/09/07 05:30:47;;;;;;;16.17;6.77;;;10.60;99.90;;;;;;4364859;28;657870;-66
2021/09/07 05:33:35;;;;;;;20.73;6.90;;;10.80;99.90;;;;;;4387258;28;657815;-66
2021/09/07 05:36:23;;;;;;;19.93;8.53;;;11.00;99.90;;;;;;4349279;28;658433;-66
2021/09/07 05:39:12;;;;;;;19.07;8.10;;;11.20;99.90;;;;;;4382632;28;657793;-66
2021/09/07 05:41:59;;;;;;;20.37;8.67;;;11.40;99.90;;;;;;4366597;28;659041;-66
2021/09/07 05:44:47;;;;;;;22.47;9.07;;;11.60;99.90;;;;;;4375494;28;657572;-66
2021/09/07 05:47:35;;;;;;;17.20;7.97;;;11.70;99.90;;;;;;4387070;28;658460;-66
2021/09/07 05:50:22;;;;;;;19.23;8.43;;;11.90;99.90;;;;;;4364770;28;657861;-66
2021/09/07 05:53:10;;;;;;;15.90;8.03;;;12.10;99.90;;;;;;4372656;28;658661;-66
2021/09/07 05:55:59;;;;;;;20.37;8.63;;;12.20;99.90;;;;;;4365212;28;657771;-66
2021/09/07 05:58:47;;;;;;;19.37;9.23;;;12.40;99.90;;;;;;4370718;28;657376;-66
2021/09/07 06:01:35;;;;;;;17.30;8.97;;;12.50;99.90;;;;;;4367865;28;658621;-66
2021/09/07 06:04:23;;;;;;;16.80;8.40;;;12.60;99.90;;;;;;4363877;28;657522;-66
2021/09/07 06:07:10;;;;;;;20.73;8.95;;;12.60;99.90;;;;;;4380301;28;658275;-66
2021/09/07 06:09:58;;;;;;;19.43;8.43;;;12.70;99.90;;;;;;4367627;28;657427;-66
2021/09/07 06:12:47;;;;;;;15.93;7.93;;;12.80;99.90;;;;;;4391563;28;657838;-66
2021/09/07 06:15:35;;;;;;;19.27;8.10;;;13.00;99.90;;;;;;4358121;28;657629;-66
2021/09/07 06:18:22;;;;;;;18.27;7.87;;;13.20;99.90;;;;;;4356266;28;657833;-66
2021/09/07 06:21:10;;;;;;;17.23;8.30;;;13.30;91.80;;;;;;4379982;28;658298;-66
2021/09/07 06:23:58;;;;;;;17.63;7.87;;;13.40;91.10;;;;;;4363962;28;657799;-66
2021/09/07 06:26:45;;;;;;;23.30;8.37;;;13.60;72.80;;;;;;4374537;28;659022;-66
2021/09/07 06:29:34;;;;;;;16.47;8.07;;;13.70;63.60;;;;;;4363782;28;658141;-66
2021/09/07 06:32:22;;;;;;;16.87;8.27;;;13.90;56.40;;;;;;4381088;28;657545;-66
2021/09/07 06:35:10;;;;;;;20.70;7.50;;;13.90;54.70;;;;;;4376163;28;659094;-66
2021/09/07 06:37:58;;;;;;;14.60;7.53;;;14.10;1.00;;;;;;4364267;28;658220;-66
2021/09/07 06:40:45;;;;;;;17.30;8.00;;;14.20;1.00;;;;;;4387427;28;656819;-67
2021/09/07 06:43:33;;;;;;;16.73;7.57;;;14.30;1.00;;;;;;4362306;28;656412;-66
2021/09/07 06:46:22;;;;;;;15.27;7.17;;;14.50;1.00;;;;;;4389233;28;657681;-66
2021/09/07 06:49:09;;;;;;;15.90;6.77;;;14.60;1.00;;;;;;4354261;28;657732;-66
2021/09/07 06:51:57;;;;;;;12.03;6.53;;;14.70;1.00;;;;;;4365538;28;658418;-67
2021/09/07 06:54:45;;;;;;;13.77;6.90;;;14.90;1.00;;;;;;4380977;28;657421;-66
2021/09/07 06:57:33;;;;;;;13.50;6.33;;;15.10;1.00;;;;;;4361678;28;656181;-67
2021/09/07 07:00:21;;;;;;;15.77;6.73;;;15.30;1.00;;;;;;4376444;28;657340;-66
2021/09/07 07:03:10;;;;;;;16.60;6.77;;;15.50;1.00;;;;;;4373825;28;656559;-67
2021/09/07 07:05:58;;;;;;;17.73;7.63;;;15.50;1.00;;;;;;4359455;28;656272;-66
2021/09/07 07:08:45;;;;;;;15.30;8.33;;;15.50;1.00;;;;;;4386223;28;657390;-66
2021/09/07 07:11:33;;;;;;;15.83;8.10;;;15.60;1.00;;;;;;4369876;28;656469;-66
2021/09/07 07:14:21;;;;;;;15.67;7.00;;;15.70;1.00;;;;;;4379095;28;656194;-67
2021/09/07 07:17:09;;;;;;;19.47;8.17;;;15.80;1.00;;;;;;4376016;28;657496;-66
2021/09/07 07:19:59;;;;;;;19.97;7.97;;;15.80;1.00;;;;;;4370583;28;657161;-66
2021/09/07 07:22:46;;;;;;;18.27;8.70;;;15.90;1.00;;;;;;4381825;28;656148;-66
2021/09/07 07:25:34;;;;;;;20.93;8.73;;;16.00;1.00;;;;;;4356082;28;657767;-66
2021/09/07 07:28:22;;;;;;;17.57;8.13;;;16.00;1.00;;;;;;4379502;28;656551;-66
2021/09/07 07:31:09;;;;;;;17.33;8.80;;;16.20;1.00;;;;;;4368561;28;657640;-66
2021/09/07 07:33:57;;;;;;;16.50;7.60;;;16.30;1.00;;;;;;4384578;28;657596;-67
2021/09/07 07:36:46;;;;;;;14.03;6.67;;;16.50;1.00;;;;;;4386227;28;657551;-66
2021/09/07 07:39:35;;;;;;;13.87;7.07;;;16.70;1.00;;;;;;4353361;28;659352;-67
2021/09/07 07:42:23;;;;;;;14.03;7.37;;;17.00;1.00;;;;;;4347633;28;656485;-67
2021/09/07 07:45:11;;;;;;;17.60;7.47;;;17.20;1.00;;;;;;4384134;28;657435;-67
2021/09/07 07:47:59;;;;;;;13.83;7.50;;;17.30;1.00;;;;;;4367795;28;656228;-66
2021/09/07 07:50:46;;;;;;;18.03;7.13;;;17.40;1.00;;;;;;4381974;28;656449;-67
2021/09/07 07:53:35;;;;;;;14.30;6.30;;;17.50;1.00;;;;;;4362774;28;657076;-67
2021/09/07 07:56:23;;;;;;;13.37;6.73;;;17.60;1.00;;;;;;4379992;28;656581;-66
2021/09/07 07:59:11;;;;;;;11.03;6.43;;;17.80;1.00;;;;;;4385905;28;656998;-66
2021/09/07 08:01:59;;;;;;;11.77;6.70;;;17.80;1.00;;;;;;4354298;28;656710;-67
2021/09/07 08:04:46;;;;;;;12.53;5.70;;;18.00;1.00;;;;;;4377011;28;656171;-66
2021/09/07 08:07:35;;;;;;;10.87;5.93;;;18.20;1.00;;;;;;4362214;28;657572;-66
2021/09/07 08:10:24;;;;;;;11.73;6.00;;;18.40;1.00;;;;;;4368977;28;656371;-67
2021/09/07 08:13:11;;;;;;;11.60;5.90;;;18.60;1.00;;;;;;4385885;28;656990;-67
2021/09/07 08:15:59;;;;;;;10.53;5.47;;;18.60;1.00;;;;;;4360998;28;657422;-66
2021/09/07 08:18:47;;;;;;;10.33;5.47;;;18.80;1.00;;;;;;4381122;28;656315;-66
2021/09/07 08:21:34;;;;;;;14.70;6.40;;;18.90;1.00;;;;;;4355053;28;656971;-66
2021/09/07 08:24:22;;;;;;;11.63;6.10;;;19.10;1.00;;;;;;4373973;28;656418;-67
2021/09/07 08:27:11;;;;;;;11.97;5.40;;;19.00;1.00;;;;;;4376161;28;657137;-66
2021/09/07 08:29:59;;;;;;;12.47;5.80;;;18.90;1.00;;;;;;4358534;28;657345;-67
2021/09/07 08:32:47;;;;;;;12.30;5.40;;;18.90;1.00;;;;;;4374513;28;657022;-67
2021/09/07 08:35:34;;;;;;;11.03;5.53;;;18.70;1.00;;;;;;4343899;28;656825;-67
2021/09/07 08:38:23;;;;;;;12.53;5.63;;;18.60;1.00;;;;;;4369435;28;657296;-67
2021/09/07 08:41:10;;;;;;;11.07;6.00;;;18.60;1.00;;;;;;4390825;28;657587;-67
2021/09/07 08:43:59;;;;;;;12.80;6.70;;;18.70;1.00;;;;;;4363622;28;656384;-67
2021/09/07 08:46:47;;;;;;;10.40;5.33;;;18.80;1.00;;;;;;4386340;28;656466;-67
2021/09/07 08:49:35;;;;;;;13.77;6.60;;;18.90;1.00;;;;;;4371453;28;657552;-67
2021/09/07 08:52:24;;;;;;;11.53;6.00;;;18.90;1.00;;;;;;4358195;28;656561;-67
2021/09/07 08:55:12;;;;;;;10.33;6.13;;;18.90;1.00;;;;;;4379012;28;656257;-67
2021/09/07 08:58:00;;;;;;;12.83;5.83;;;19.00;1.00;;;;;;4385751;28;657398;-67
2021/09/07 09:00:50;;;;;;;10.97;6.03;;;19.40;1.00;;;;;;4363906;28;656509;-67
2021/09/07 09:03:39;;;;;;;13.77;6.50;;;19.70;1.00;;;;;;4343865;28;656415;-68
2021/09/07 09:06:27;;;;;;;15.70;6.47;;;19.80;1.00;;;;;;4389581;28;656508;-67
2021/09/07 09:09:15;;;;;;;13.70;6.37;;;19.90;1.00;;;;;;4372873;28;657502;-67
2021/09/07 09:12:03;;;;;;;13.90;6.13;;;19.90;1.00;;;;;;4367898;28;656771;-67
2021/09/07 09:14:51;;;;;;;10.90;6.53;;;20.20;1.00;;;;;;4376401;28;656819;-67
2021/09/07 09:17:40;;;;;;;14.47;6.40;;;20.50;1.00;;;;;;4362837;28;658106;-67
2021/09/07 09:20:28;;;;;;;14.00;6.40;;;20.60;1.00;;;;;;4357742;28;656752;-67
2021/09/07 09:23:16;;;;;;;13.80;6.50;;;20.70;1.00;;;;;;4383521;28;657638;-67
2021/09/07 09:26:03;;;;;;;13.73;6.70;;;20.90;1.00;;;;;;4359801;28;656774;-67
2021/09/07 09:28:58;;;;;;;10.50;6.20;;;21.30;1.00;;;;;;4381849;28;656315;-67
2021/09/07 09:31:54;;;;;;;9.67;6.13;;;21.50;1.00;;;;;;4359998;28;657178;-67
2021/09/07 09:34:43;;;;;;;12.87;6.33;;;21.60;1.00;;;;;;4353536;28;655649;-67
2021/09/07 09:37:30;;;;;;;15.00;6.50;;;22.10;1.00;;;;;;4361953;28;657695;-67
2021/09/07 09:40:19;;;;;;;14.77;6.43;;;22.50;1.00;;;;;;4363429;28;656854;-67
2021/09/07 09:43:32;;;;;;;13.33;6.03;;;22.70;1.00;;;;;;4367728;28;656867;-67
2021/09/07 09:46:22;;;;;;;11.70;6.27;;;22.90;1.00;;;;;;4344729;28;657027;-67
2021/09/07 09:49:13;;;;;;;11.57;6.27;;;22.90;1.00;;;;;;4359529;28;657238;-68
2021/09/07 09:52:04;;;;;;;12.57;6.10;;;22.40;1.00;;;;;;4367784;28;656515;-68
2021/09/07 09:54:51;;;;;;;10.83;6.20;;;22.20;1.00;;;;;;4348445;28;656362;-67
2021/09/07 09:57:39;;;;;;;10.87;6.20;;;22.40;1.00;;;;;;4354817;28;658575;-68
2021/09/07 10:00:27;;;;;;;9.67;5.70;;;22.40;1.00;;;;;;4359655;28;656539;-67
2021/09/07 10:03:15;;;;;;;13.50;5.90;;;22.20;1.00;;;;;;4382809;28;656739;-67
2021/09/07 10:06:03;;;;;;;10.27;5.80;;;21.70;1.00;;;;;;4352849;28;656623;-68
2021/09/07 10:08:52;;;;;;;16.50;5.97;;;21.50;1.00;;;;;;4403072;28;657850;-67
2021/09/07 10:11:40;;;;;;;10.27;5.80;;;21.10;1.00;;;;;;4358463;28;657789;-68
2021/09/07 10:14:30;;;;;;;11.13;6.10;;;21.00;1.00;;;;;;4369030;28;657047;-67
2021/09/07 10:17:25;;;;;;;12.27;6.37;;;21.40;1.00;;;;;;4369290;28;656738;-67
2021/09/07 10:20:23;;;;;;;12.53;6.03;;;21.40;1.00;;;;;;4342401;28;656690;-67
2021/09/07 10:26:19;;;;;;;16.47;6.43;;;21.60;1.00;;;;;;4336985;28;656553;-67
2021/09/07 10:29:07;;;;;;;12.07;6.07;;;22.10;1.00;;;;;;4382471;28;656618;-67
2021/09/07 10:31:55;;;;;;;11.83;6.47;;;22.30;1.00;;;;;;4364196;28;657386;-68
2021/09/07 10:35:03;;;;;;;10.83;6.03;;;22.50;1.00;;;;;;4367907;28;656823;-68
2021/09/07 10:38:10;;;;;;;10.63;6.07;;;22.70;1.00;;;;;;4350336;28;657192;-67
2021/09/07 10:40:58;;;;;;;10.87;6.20;;;23.00;1.00;;;;;;4338727;28;656598;-67
2021/09/07 10:43:54;;;;;;;10.40;5.80;;;22.90;1.00;;;;;;4380984;28;657794;-67
2021/09/07 10:46:49;;;;;;;9.60;6.13;;;23.40;1.00;;;;;;4356938;28;656522;-67
2021/09/07 10:49:48;;;;;;;11.00;5.80;;;23.10;1.00;;;;;;4363688;28;655874;-67
2021/09/07 10:52:36;;;;;;;16.17;7.27;;;23.20;1.00;;;;;;4362312;28;657064;-68
2021/09/07 10:55:24;;;;;;;15.83;5.93;;;23.20;1.00;;;;;;4361425;28;656881;-68
2021/09/07 10:58:11;;;;;;;12.87;6.80;;;23.20;1.00;;;;;;4390465;28;656556;-67
2021/09/07 11:01:15;;;;;;;12.17;6.43;;;23.00;1.00;;;;;;4356225;28;658287;-67
2021/09/07 11:04:31;;;;;;;13.83;6.93;;;23.00;1.00;;;;;;4345955;28;656661;-67
2021/09/07 11:07:40;;;;;;;13.37;7.30;;;23.20;1.00;;;;;;4360552;28;656482;-67
2021/09/07 11:10:28;;;;;;;13.80;7.07;;;23.50;1.00;;;;;;4335762;28;656456;-68
2021/09/07 11:13:23;;;;;;;15.83;7.87;;;23.40;1.00;;;;;;4374752;28;657882;-68
2021/09/07 11:16:12;;;;;;;12.87;7.00;;;23.40;1.00;;;;;;4365641;28;656627;-68
2021/09/07 11:19:01;;;;;;;17.17;7.23;;;22.90;1.00;;;;;;4358625;28;657905;-67
2021/09/07 11:21:49;;;;;;;16.47;7.83;;;22.90;1.00;;;;;;4376803;28;656387;-67
2021/09/07 11:24:37;;;;;;;13.43;6.73;;;23.00;1.00;;;;;;4373624;28;656311;-68
2021/09/07 11:27:26;;;;;;;14.30;7.50;;;23.20;1.00;;;;;;4367372;28;657090;-68
2021/09/07 11:30:22;;;;;;;11.90;7.43;;;23.20;1.00;;;;;;4365148;28;656361;-67
2021/09/07 11:33:12;;;;;;;14.23;7.87;;;23.30;1.00;;;;;;4349624;28;657018;-67
2021/09/07 11:36:00;;;;;;;13.50;7.30;;;23.70;1.00;;;;;;4358647;28;657279;-68
2021/09/07 11:38:49;;;;;;;11.20;7.30;;;23.70;1.00;;;;;;4357634;28;656703;-67
2021/09/07 11:41:36;;;;;;;12.97;7.57;;;23.80;1.00;;;;;;4378542;28;656505;-68
2021/09/07 11:44:25;;;;;;;15.20;7.57;;;24.00;1.00;;;;;;4355571;28;658108;-67
2021/09/07 11:47:13;;;;;;;15.07;6.93;;;23.80;1.00;;;;;;4370242;28;656792;-68
2021/09/07 11:50:02;;;;;;;17.10;6.97;;;23.90;1.00;;;;;;4385732;28;657912;-67
2021/09/07 11:52:50;;;;;;;12.30;7.40;;;23.80;1.00;;;;;;4369050;28;656562;-68
2021/09/07 11:55:48;;;;;;;14.17;7.13;;;23.70;1.00;;;;;;4360103;28;656354;-68
2021/09/07 11:58:37;;;;;;;15.93;6.97;;;24.00;1.00;;;;;;4360068;28;656514;-68
2021/09/07 12:01:26;;;;;;;8.82;5.97;;;24.30;1.00;;;;;;4357428;28;657479;-67
2021/09/07 12:04:14;;;;;;;14.33;7.20;;;24.50;1.00;;;;;;4366410;28;655331;-67
2021/09/07 12:07:06;;;;;;;11.97;6.87;;;24.70;1.00;;;;;;4372965;28;656956;-68
2021/09/07 12:09:53;;;;;;;11.02;6.63;;;24.70;1.00;;;;;;4354638;28;656982;-68
2021/09/07 12:12:41;;;;;;;11.87;6.77;;;24.30;27.30;;;;;;4377904;28;657067;-67
2021/09/07 12:15:28;;;;;;;11.87;6.33;;;24.10;58.60;;;;;;4360599;28;657622;-68
2021/09/07 12:18:29;;;;;;;8.33;5.20;;;24.20;58.50;;;;;;4384221;28;657989;-68
2021/09/07 12:21:22;;;;;;;12.83;6.10;;;24.50;1.00;;;;;;4362586;28;656956;-68
2021/09/07 12:24:14;;;;;;;13.90;6.87;;;24.90;99.90;;;;;;4335334;28;657691;-68
2021/09/07 12:27:16;;;;;;;11.20;6.20;;;25.50;99.90;;;;;;4367453;28;657706;-68
2021/09/07 12:30:19;;;;;;;10.77;5.95;;;26.20;99.90;;;;;;4334134;28;658628;-67
2021/09/07 12:33:09;;;;;;;12.10;6.30;;;26.60;99.90;;;;;;4350331;28;657915;-68
2021/09/07 12:35:59;;;;;;;9.95;5.65;;;26.30;99.90;;;;;;4344771;28;657304;-67
2021/09/07 12:38:47;;;;;;;10.73;6.35;;;25.40;99.90;;;;;;4368151;28;656885;-67
2021/09/07 12:41:36;;;;;;;11.50;6.07;;;25.30;99.90;;;;;;4358440;28;658099;-67
2021/09/07 12:44:23;;;;;;;12.52;6.57;;;24.80;99.90;;;;;;4363926;28;657688;-67
2021/09/07 12:47:11;;;;;;;15.00;6.60;;;24.90;99.90;;;;;;4369118;28;658091;-67
2021/09/07 12:49:59;;;;;;;11.27;6.05;;;25.10;99.90;;;;;;4350834;28;657947;-68
2021/09/07 12:52:48;;;;;;;12.43;6.40;;;25.60;99.90;;;;;;4386215;28;657215;-68
2021/09/07 12:55:37;;;;;;;12.98;6.28;;;25.80;99.90;;;;;;4358209;28;657739;-68
2021/09/07 12:58:28;;;;;;;10.43;6.40;;;26.20;99.90;;;;;;4350865;28;659380;-68
2021/09/07 13:01:16;;;;;;;10.73;5.75;;;26.70;99.90;;;;;;4364216;28;659175;-68
2021/09/07 13:04:04;;;;;;;17.17;6.97;;;26.50;99.90;;;;;;4368658;28;658077;-68
2021/09/07 13:06:52;;;;;;;8.80;6.18;;;26.20;99.90;;;;;;4377489;28;657675;-67
2021/09/07 13:09:39;;;;;;;11.63;6.43;;;25.80;99.90;;;;;;4351602;28;657164;-68
2021/09/07 13:12:27;;;;;;;12.25;6.10;;;25.80;99.90;;;;;;4379540;28;657808;-68
2021/09/07 13:15:16;;;;;;;15.60;6.35;;;25.70;99.90;;;;;;4396036;28;658210;-68
2021/09/07 13:18:04;;;;;;;11.70;6.43;;;25.80;99.90;;;;;;4360985;28;659664;-68
2021/09/07 13:20:53;;;;;;;10.38;6.80;;;26.20;99.90;;;;;;4377007;28;658101;-67
2021/09/07 13:23:40;;;;;;;14.27;6.97;;;26.20;99.90;;;;;;4379767;28;657230;-68
2021/09/07 13:26:28;;;;;;;13.30;6.68;;;26.20;99.90;;;;;;4368296;28;657626;-67
2021/09/07 13:29:16;;;;;;;12.60;6.32;;;26.10;99.90;;;;;;4372459;28;658048;-68
2021/09/07 13:32:06;;;;;;;10.27;6.25;;;26.30;99.90;;;;;;4360477;28;657466;-68
2021/09/07 13:34:54;;;;;;;11.60;6.18;;;26.20;99.90;;;;;;4371832;28;657944;-68
2021/09/07 13:37:41;;;;;;;11.50;6.00;;;26.40;99.90;;;;;;4370571;28;657826;-68
2021/09/07 13:40:29;;;;;;;13.30;6.32;;;26.30;99.90;;;;;;4349011;28;659052;-68
2021/09/07 13:43:17;;;;;;;9.45;6.00;;;26.40;99.90;;;;;;4367538;28;657602;-68
2021/09/07 13:46:04;;;;;;;9.60;6.47;;;26.40;99.90;;;;;;4362869;28;658740;-68
2021/09/07 13:48:54;;;;;;;11.68;6.53;;;26.60;99.90;;;;;;4370356;28;656263;-67
2021/09/07 13:51:41;;;;;;;12.98;6.70;;;26.60;99.90;;;;;;4383905;28;658235;-68
2021/09/07 13:54:29;;;;;;;11.52;6.53;;;26.80;99.90;;;;;;4369705;28;658822;-69
2021/09/07 13:57:16;;;;;;;11.50;6.03;;;26.30;99.90;;;;;;4369575;28;657193;-68
2021/09/07 14:00:05;;;;;;;12.27;6.47;;;26.10;99.90;;;;;;4368539;28;658473;-68
2021/09/07 14:02:53;;;;;;;11.00;5.95;;;26.30;99.90;;;;;;4363353;28;658082;-67
2021/09/07 14:05:42;;;;;;;13.00;6.13;;;26.50;99.90;;;;;;4387878;28;658958;-67
2021/09/07 14:08:29;;;;;;;10.95;6.45;;;26.90;99.90;;;;;;4373673;28;657763;-67
2021/09/07 14:11:17;;;;;;;12.75;6.53;;;27.30;99.90;;;;;;4375139;28;657968;-67
2021/09/07 14:14:05;;;;;;;14.40;6.43;;;27.40;99.90;;;;;;4371791;28;658202;-67
2021/09/07 14:16:53;;;;;;;11.50;6.32;;;26.90;99.90;;;;;;4362196;28;657442;-67
2021/09/07 14:19:40;;;;;;;10.90;6.63;;;26.50;99.90;;;;;;4381602;28;658607;-67
2021/09/07 14:22:31;;;;;;;9.85;6.25;;;25.80;99.90;;;;;;4363786;28;657445;-67
2021/09/07 14:25:19;;;;;;;10.82;5.80;;;25.90;99.90;;;;;;4362074;28;656664;-67
2021/09/07 14:28:07;;;;;;;10.48;6.43;;;26.00;99.90;;;;;;4383890;28;658046;-67
2021/09/07 14:30:55;;;;;;;11.80;6.28;;;26.10;99.90;;;;;;4365626;28;658471;-67